Flood From: 19-02-2018 10:30 Until: 20-02-2018 06:00 warning for: Flood Level: Yellow info button

Although rather usual in this region, locally or potentially dangerous phenomena are expected. (such as local winds, summer thunderstorms, rising streams or high waves) Be aware and pay attention to the latest weather updates, especially if you carry out activities exposed to weather or close to a stream or shoreline. 


Meteo18 Weather Cam more information Meteo18 Weather Cam


Thunder radar more information blitzortung!


Rain radar more information rain snow radar


Visit our other weather sites:

Template documentation
and downloads

And another site



Weather Underground History page Text

Daily Summary for April 19, 2017 Units:  Metric    English   Both
« Previous Day
Next Day »
Daily Weekly Monthly Yearly Custom
  High: Low: Average:
Temperature: -17.8 °C -17.2 °C -14.6 °C
Dew Point: -17.8 °C -19.8 °C -18.3 °C
Humidity: Humidity % 41 % 64 %
Wind Speed: 0 km/h 0 km/h 15.9 km/h
Wind Gust: 0 km/h - -
Wind:- - East
Pressure: 0 hPa 34852.1 hPa -
Precipitation: 0 mm    
Historical Graphs
 
 
Tabular Data for April 19, 2017
Time Temperature Dew Point Pressure Wind Wind Speed Wind Gust Humidity Rainfall Rate (Hourly)
-17.8 °C -17.8 °C 0 hPa Calm     Humidity % 0 mm
00:07 -15.5 °C -17.1 °C 34852.1 hPa Calm   20.8 km/h 82 % 0 mm
00:12 -15.5 °C -17.1 °C 34852.1 hPa NNW 7.7 km/h 20.8 km/h 82 % 0 mm
00:17 -15.4 °C -17.1 °C 34852.1 hPa NE 7.7 km/h 20.8 km/h 81 % 0 mm
00:22 -15.4 °C -17.1 °C 34852.1 hPa NE 10.3 km/h 31.1 km/h 81 % 0 mm
00:27 -15.6 °C -17.2 °C 34852.1 hPa NE 2.6 km/h 31.1 km/h 81 % 0 mm
00:32 -15.6 °C -17.3 °C 34852.1 hPa North 7.7 km/h 31.1 km/h 81 % 0 mm
00:37 -15.6 °C -17.3 °C 34852.1 hPa NE 5.1 km/h 15.6 km/h 81 % 0 mm
00:42 -15.6 °C -17.3 °C 34852.1 hPa North 5.1 km/h 15.6 km/h 80 % 0 mm
00:52 -15.7 °C -17.3 °C 34852.1 hPa North 2.6 km/h 12.9 km/h 81 % 0 mm
00:57 -15.7 °C -17.3 °C 34852.1 hPa NNE 2.6 km/h 10.3 km/h 81 % 0 mm
01:02 -15.7 °C -17.3 °C 34852.1 hPa NNW 10.3 km/h 10.3 km/h 81 % 0 mm
01:12 -15.7 °C -17.3 °C 34852.1 hPa NNW 7.7 km/h 12.9 km/h 81 % 0 mm
01:17 -15.8 °C -17.4 °C 34852.1 hPa North 5.1 km/h 12.9 km/h 81 % 0 mm
01:22 -15.9 °C -17.6 °C 34852.1 hPa NW 2.6 km/h 10.3 km/h 81 % 0 mm
01:32 -16 °C -17.4 °C 34852.1 hPa NNW 5.1 km/h 10.3 km/h 83 % 0 mm
01:37 -16 °C -17.4 °C 34852.1 hPa North 12.9 km/h 18.2 km/h 83 % 0 mm
01:42 -16 °C -17.4 °C 34852.1 hPa NNE 7.7 km/h 18.2 km/h 83 % 0 mm
01:47 -16 °C -17.4 °C 34852.1 hPa NNE 7.7 km/h 18.2 km/h 83 % 0 mm
01:52 -16.1 °C -17.5 °C 34852.1 hPa NE 5.1 km/h 20.8 km/h 83 % 0 mm
01:57 -16 °C -17.4 °C 34852.1 hPa NNE 15.6 km/h 20.8 km/h 83 % 0 mm
02:02 -16.1 °C -17.5 °C 34852.1 hPa North 5.1 km/h 20.8 km/h 83 % 0 mm
02:07 -16 °C -17.4 °C 34852.1 hPa North 7.7 km/h 20.8 km/h 83 % 0 mm
02:12 -16.1 °C -17.5 °C 34852.1 hPa NNE 2.6 km/h 20.8 km/h 83 % 0 mm
02:17 -16 °C -17.3 °C 34852.1 hPa Calm   20.8 km/h 84 % 0 mm
02:22 -16.1 °C -17.4 °C 34852.1 hPa NNE 12.9 km/h 25.9 km/h 84 % 0 mm
02:32 -16.2 °C -17.6 °C 34852.1 hPa NW 7.7 km/h 25.9 km/h 84 % 0 mm
02:37 -16.2 °C -17.5 °C 34852.1 hPa Calm   15.6 km/h 85 % 0 mm
02:42 -16.3 °C -17.6 °C 34852.1 hPa North 7.7 km/h 15.6 km/h 85 % 0 mm
02:47 -16.3 °C -17.6 °C 34852.1 hPa NNE 10.3 km/h 15.6 km/h 85 % 0 mm
02:52 -16.3 °C -17.6 °C 34852.1 hPa NNE 10.3 km/h 18.2 km/h 85 % 0 mm
02:57 -16.3 °C -17.6 °C 34852.1 hPa North 15.6 km/h 18.2 km/h 85 % 0 mm
03:02 -16.3 °C -17.6 °C 34852.1 hPa NE 2.6 km/h 18.2 km/h 85 % 0 mm
03:07 -16.3 °C -17.6 °C 34852.1 hPa NNE 12.9 km/h 15.6 km/h 85 % 0 mm
03:12 -16.3 °C -17.6 °C 34852.1 hPa NE 5.1 km/h 18.2 km/h 85 % 0 mm
03:17 -16.3 °C -17.6 °C 34852.1 hPa NE 2.6 km/h 18.2 km/h 85 % 0 mm
03:22 -16.3 °C -17.6 °C 34852.1 hPa North 5.1 km/h 18.2 km/h 85 % 0 mm
03:27 -16.4 °C -17.7 °C 34852.1 hPa NNE 10.3 km/h 12.9 km/h 85 % 0 mm
03:32 -16.4 °C -17.7 °C 34852.1 hPa NE 10.3 km/h 12.9 km/h 85 % 0 mm
03:37 -16.4 °C -17.7 °C 34852.1 hPa North 10.3 km/h 12.9 km/h 85 % 0 mm
03:42 -16.4 °C -17.7 °C 34852.1 hPa NE 5.1 km/h 12.9 km/h 85 % 0 mm
03:52 -16.4 °C -17.7 °C 34852.1 hPa NE 2.6 km/h 15.6 km/h 85 % 0 mm
04:02 -16.3 °C -17.6 °C 34852.1 hPa NNE 18.2 km/h 18.2 km/h 84 % 0 mm
04:12 -16.3 °C -17.6 °C 34852.1 hPa NE 12.9 km/h 25.9 km/h 85 % 0 mm
04:17 -16.3 °C -17.7 °C 34852.1 hPa NE 12.9 km/h 20.8 km/h 84 % 0 mm
04:22 -16.4 °C -17.7 °C 34865.6 hPa NE 2.6 km/h 23.3 km/h 85 % 0 mm
04:32 -16.5 °C -17.8 °C 34865.6 hPa NNE 2.6 km/h 23.3 km/h 85 % 0 mm
04:37 -16.5 °C -17.8 °C 34865.6 hPa North 7.7 km/h 18.2 km/h 85 % 0 mm
04:42 -16.5 °C -17.8 °C 34865.6 hPa North 10.3 km/h 18.2 km/h 85 % 0 mm
04:47 -16.6 °C -17.8 °C 34865.6 hPa NNE 7.7 km/h 23.3 km/h 85 % 0 mm
04:52 -16.6 °C -17.9 °C 34865.6 hPa NNW 2.6 km/h 23.3 km/h 85 % 0 mm
05:02 -16.8 °C -17.9 °C 34865.6 hPa NNE 2.6 km/h 18.2 km/h 86 % 0 mm
05:12 -16.8 °C -17.9 °C 34865.6 hPa NNE 7.7 km/h 20.8 km/h 87 % 0 mm
05:17 -16.8 °C -17.9 °C 34865.6 hPa NNW 5.1 km/h 20.8 km/h 87 % 0 mm
05:22 -16.9 °C -17.9 °C 34865.6 hPa NNE 7.7 km/h 20.8 km/h 87 % 0 mm
05:32 -16.9 °C -17.9 °C 34865.6 hPa ENE 15.6 km/h 20.8 km/h 87 % 0 mm
05:42 -16.9 °C -17.9 °C 34865.6 hPa NE 5.1 km/h 23.3 km/h 87 % 0 mm
05:47 -16.9 °C -17.9 °C 34865.6 hPa NNE 5.1 km/h 23.3 km/h 87 % 0 mm
05:52 -16.9 °C -18 °C 34875.8 hPa NNW 5.1 km/h 23.3 km/h 87 % 0 mm
06:02 -17 °C -18.1 °C 34875.8 hPa NNE 7.7 km/h 18.2 km/h 87 % 0 mm
06:12 -16.9 °C -17.9 °C 34875.8 hPa East 5.1 km/h 20.8 km/h 88 % 0 mm
06:17 -17 °C -18.1 °C 34875.8 hPa NNE 7.7 km/h 25.9 km/h 87 % 0 mm
06:22 -17 °C -18.1 °C 34875.8 hPa North 7.7 km/h 25.9 km/h 87 % 0 mm
06:32 -17.1 °C -18.1 °C 34889.3 hPa NNE 5.1 km/h 25.9 km/h 88 % 0 mm
06:42 -17.1 °C -18.1 °C 34889.3 hPa North 2.6 km/h 20.8 km/h 88 % 0 mm
06:47 -17.2 °C -18.2 °C 34889.3 hPa North 5.1 km/h 20.8 km/h 88 % 0 mm
06:52 -17.2 °C -18.2 °C 34889.3 hPa NNE 7.7 km/h 20.8 km/h 88 % 0 mm
06:57 -17.2 °C -18.2 °C 34889.3 hPa NNW 2.6 km/h 15.6 km/h 88 % 0 mm
07:02 -17.2 °C -18.2 °C 34889.3 hPa WNW 2.6 km/h 15.6 km/h 88 % 0 mm
07:12 -17.1 °C -18.1 °C 34889.3 hPa North 5.1 km/h 12.9 km/h 88 % 0 mm
07:17 -17.1 °C -18.1 °C 34889.3 hPa North 2.6 km/h 15.6 km/h 88 % 0 mm
07:22 -17 °C -18 °C 34889.3 hPa Calm   15.6 km/h 88 % 0 mm
07:32 -16.9 °C -17.9 °C 34889.3 hPa NNE 10.3 km/h 15.6 km/h 87 % 0 mm
07:42 -16.7 °C -17.8 °C 34899.5 hPa WNW 2.6 km/h 12.9 km/h 87 % 0 mm
07:47 -16.6 °C -17.8 °C 34899.5 hPa North 5.1 km/h 20.8 km/h 86 % 0 mm
07:52 -16.6 °C -17.7 °C 34899.5 hPa North 10.3 km/h 20.8 km/h 86 % 0 mm
07:57 -16.5 °C -17.7 °C 34899.5 hPa NNE 2.6 km/h 20.8 km/h 86 % 0 mm
08:02 -16.4 °C -17.7 °C 34899.5 hPa NNW 5.1 km/h 20.8 km/h 85 % 0 mm
08:12 -16.2 °C -17.5 °C 34909.7 hPa NNW 2.6 km/h 15.6 km/h 85 % 0 mm
08:17 -16.2 °C -17.4 °C 34909.7 hPa North 18.2 km/h 18.2 km/h 85 % 0 mm
08:22 -16.1 °C -17.4 °C 34909.7 hPa North 10.3 km/h 18.2 km/h 84 % 0 mm
08:27 -15.9 °C -17.4 °C 34909.7 hPa WNW 2.6 km/h 18.2 km/h 83 % 0 mm
08:32 -15.8 °C -17.4 °C 34909.7 hPa NNE 12.9 km/h 18.2 km/h 82 % 0 mm
08:37 -15.7 °C -17.4 °C 34909.7 hPa North 7.7 km/h 33.6 km/h 81 % 0 mm
08:42 -15.6 °C -17.3 °C 34909.7 hPa NE 7.7 km/h 33.6 km/h 81 % 0 mm
08:52 -15.5 °C -17.2 °C 34909.7 hPa NE 25.9 km/h 33.6 km/h 80 % 0 mm
08:57 -15.4 °C -17.3 °C 34909.7 hPa NNE 20.8 km/h 25.9 km/h 79 % 0 mm
09:02 -15.4 °C -17.2 °C 34923.2 hPa NNE 12.9 km/h 25.9 km/h 79 % 0 mm
09:12 -15.3 °C -17.2 °C 34923.2 hPa NNE 25.9 km/h 41.4 km/h 79 % 0 mm
09:22 -15.2 °C -17 °C 34923.2 hPa NE 15.6 km/h 41.4 km/h 79 % 0 mm
09:32 -15 °C -17.1 °C 34923.2 hPa NE 23.3 km/h 36.2 km/h 77 % 0 mm
09:42 -15.1 °C -17.1 °C 34923.2 hPa NNE 15.6 km/h 31.1 km/h 78 % 0 mm
09:52 -14.9 °C -16.9 °C 34923.2 hPa NNE 10.3 km/h 33.6 km/h 78 % 0 mm
10:02 -14.6 °C -16.9 °C 34923.2 hPa ENE 10.3 km/h 36.2 km/h 75 % 0 mm
10:12 -14.4 °C -16.7 °C 34923.2 hPa East 18.2 km/h 33.6 km/h 75 % 0 mm
10:17 -14.2 °C -16.6 °C 34923.2 hPa NE 12.9 km/h 33.6 km/h 74 % 0 mm
10:22 -14.2 °C -16.6 °C 34923.2 hPa NE 2.6 km/h 33.6 km/h 74 % 0 mm
10:32 -14.1 °C -16.9 °C 34923.2 hPa NE 20.8 km/h 31.1 km/h 70 % 0 mm
10:37 -13.9 °C -16.9 °C 34933.4 hPa ENE 18.2 km/h 36.2 km/h 69 % 0 mm
10:42 -13.8 °C -16.8 °C 34933.4 hPa NNW 20.8 km/h 36.2 km/h 69 % 0 mm
10:52 -13.7 °C -16.8 °C 34933.4 hPa North 20.8 km/h 36.2 km/h 68 % 0 mm
11:02 -13.6 °C -17 °C 34933.4 hPa North 36.2 km/h 41.4 km/h 65 % 0 mm
11:12 -13.4 °C -16.8 °C 34933.4 hPa NNE 28.5 km/h 49.2 km/h 65 % 0 mm
11:17 -13.3 °C -16.8 °C 34933.4 hPa NE 25.9 km/h 41.4 km/h 65 % 0 mm
11:22 -13.5 °C -17.6 °C 34946.9 hPa NNE 44.1 km/h 44.1 km/h 60 % 0 mm
11:32 -13.4 °C -17.4 °C 34946.9 hPa ENE 20.8 km/h 57 km/h 61 % 0 mm
11:37 -13.2 °C -17.3 °C 34946.9 hPa NE 12.9 km/h 57 km/h 60 % 0 mm
11:42 -13.4 °C -17.9 °C 34946.9 hPa North 31.1 km/h 46.7 km/h 56 % 0 mm
11:47 -13.6 °C -17.8 °C 34946.9 hPa NNE 15.6 km/h 54.4 km/h 58 % 0 mm
11:52 -13.2 °C -17.6 °C 34946.9 hPa East 18.2 km/h 54.4 km/h 58 % 0 mm
11:57 -13.1 °C -17.6 °C 34946.9 hPa NNE 15.6 km/h 54.4 km/h 57 % 0 mm
12:02 -13 °C -17.3 °C 34946.9 hPa NE 23.3 km/h 54.4 km/h 58 % 0 mm
12:07 -13.2 °C -17.8 °C 34946.9 hPa NNW 20.8 km/h 51.8 km/h 56 % 0 mm
12:12 -13.4 °C -17.8 °C 34946.9 hPa NE 23.3 km/h 51.8 km/h 57 % 0 mm
12:17 -13.4 °C -17.9 °C 34946.9 hPa NW 28.5 km/h 46.7 km/h 57 % 0 mm
12:22 -13.2 °C -17.8 °C 34946.9 hPa NNE 25.9 km/h 46.7 km/h 56 % 0 mm
12:27 -13.3 °C -18.4 °C 34946.9 hPa NNE 28.5 km/h 46.7 km/h 52 % 0 mm
12:32 -13.1 °C -18.4 °C 34933.4 hPa ENE 20.8 km/h 49.2 km/h 51 % 0 mm
12:37 -12.9 °C -18.5 °C 34933.4 hPa East 20.8 km/h 49.2 km/h 49 % 0 mm
12:42 -12.8 °C -17.9 °C 34946.9 hPa NNW 10.3 km/h 49.2 km/h 53 % 0 mm
12:52 -12.9 °C -17.8 °C 34946.9 hPa NNE 36.2 km/h 46.7 km/h 54 % 0 mm
12:57 -12.9 °C -18.2 °C 34946.9 hPa North 41.4 km/h 51.8 km/h 51 % 0 mm
13:02 -12.8 °C -17.6 °C 34946.9 hPa ENE 25.9 km/h 51.8 km/h 55 % 0 mm
13:07 -13 °C -18.3 °C 34946.9 hPa NE 36.2 km/h 57 km/h 51 % 0 mm
13:12 -12.8 °C -18.2 °C 34946.9 hPa NE 18.2 km/h 57 km/h 51 % 0 mm
13:17 -12.7 °C -18.4 °C 34946.9 hPa North 18.2 km/h 51.8 km/h 49 % 0 mm
13:22 -12.8 °C -18.2 °C 34933.4 hPa NNE 28.5 km/h 51.8 km/h 51 % 0 mm
13:27 -12.7 °C -18.7 °C 34933.4 hPa NNE 31.1 km/h 46.7 km/h 47 % 0 mm
13:32 -12.6 °C -18.4 °C 34933.4 hPa NE 31.1 km/h 46.7 km/h 48 % 0 mm
13:37 -12.5 °C -18.3 °C 34933.4 hPa NE 33.6 km/h 54.4 km/h 48 % 0 mm
13:42 -12.4 °C -18.1 °C 34923.2 hPa NE 33.6 km/h 54.4 km/h 49 % 0 mm
13:52 -12.6 °C -18.1 °C 34933.4 hPa NE 49.2 km/h 54.4 km/h 50 % 0 mm
13:57 -12.8 °C -18.6 °C 34933.4 hPa NE 20.8 km/h 49.2 km/h 48 % 0 mm
14:07 -12.3 °C -18.1 °C 34923.2 hPa NNW 12.9 km/h 49.2 km/h 48 % 0 mm
14:12 -12.1 °C -18.1 °C 34923.2 hPa NW 12.9 km/h 49.2 km/h 47 % 0 mm
14:17 -12.4 °C -18.1 °C 34923.2 hPa NE 46.7 km/h 49.2 km/h 49 % 0 mm
14:22 -12.7 °C -18 °C 34923.2 hPa NNE 33.6 km/h 49.2 km/h 51 % 0 mm
14:32 -12.6 °C -18.8 °C 34923.2 hPa NE 46.7 km/h 59.5 km/h 45 % 0 mm
14:37 -12.6 °C -18.4 °C 34923.2 hPa NE 46.7 km/h 69.8 km/h 48 % 0 mm
14:42 -12.6 °C -18.9 °C 34923.2 hPa NNE 23.3 km/h 69.8 km/h 45 % 0 mm
14:47 -12.8 °C -18.9 °C 34923.2 hPa NE 44.1 km/h 64.7 km/h 46 % 0 mm
14:52 -12.6 °C -18.7 °C 34923.2 hPa NE 23.3 km/h 64.7 km/h 46 % 0 mm
14:57 -12.3 °C -19 °C 34923.2 hPa NE 15.6 km/h 64.7 km/h 43 % 0 mm
15:02 -12.6 °C -18.4 °C 34923.2 hPa NE 33.6 km/h 64.7 km/h 48 % 0 mm
15:12 -12.4 °C -18.9 °C 34923.2 hPa NNW 12.9 km/h 51.8 km/h 44 % 0 mm
15:17 -12.4 °C -18.7 °C 34923.2 hPa NE 23.3 km/h 57 km/h 45 % 0 mm
15:22 -12.4 °C -18.8 °C 34909.7 hPa NE 49.2 km/h 57 km/h 45 % 0 mm
15:27 -12.4 °C -18.7 °C 34923.2 hPa NNE 18.2 km/h 62.1 km/h 45 % 0 mm
15:32 -12.3 °C -18.1 °C 34923.2 hPa North 12.9 km/h 62.1 km/h 48 % 0 mm
15:37 -12.3 °C -18.7 °C 34909.7 hPa NNW 25.9 km/h 62.1 km/h 45 % 0 mm
15:42 -12.3 °C -18.6 °C 34909.7 hPa NE 25.9 km/h 62.1 km/h 45 % 0 mm
15:47 -12.3 °C -18.7 °C 34909.7 hPa NE 15.6 km/h 57 km/h 45 % 0 mm
15:52 -12.3 °C -18.7 °C 34909.7 hPa NE 12.9 km/h 57 km/h 45 % 0 mm
16:02 -12.6 °C -18.8 °C 34909.7 hPa ENE 15.6 km/h 51.8 km/h 45 % 0 mm
16:12 -12.3 °C -18.7 °C 34909.7 hPa NNE 15.6 km/h 57 km/h 45 % 0 mm
16:17 -12.2 °C -18.7 °C 34909.7 hPa ESE 7.7 km/h 57 km/h 44 % 0 mm
16:22 -12.3 °C -19.3 °C 34909.7 hPa NNE 18.2 km/h 57 km/h 41 % 0 mm
16:27 -12.4 °C -19.1 °C 34909.7 hPa NNE 12.9 km/h 51.8 km/h 43 % 0 mm
16:32 -12.2 °C -19.1 °C 34899.5 hPa ENE 20.8 km/h 51.8 km/h 42 % 0 mm
16:37 -12.1 °C -18.6 °C 34899.5 hPa NNE 57 km/h 57 km/h 44 % 0 mm
16:42 -12.4 °C -18.8 °C 34909.7 hPa NE 20.8 km/h 51.8 km/h 45 % 0 mm
16:47 -12.7 °C -18.8 °C 34909.7 hPa NE 44.1 km/h 67.3 km/h 46 % 0 mm
16:57 -12.6 °C -18.8 °C 34909.7 hPa NNW 28.5 km/h 57 km/h 45 % 0 mm
17:02 -12.3 °C -18.8 °C 34899.5 hPa NE 18.2 km/h 57 km/h 44 % 0 mm
17:12 -12.6 °C -19.2 °C 34899.5 hPa NE 28.5 km/h 49.2 km/h 43 % 0 mm
17:17 -12.6 °C -18.8 °C 34899.5 hPa NNW 23.3 km/h 54.4 km/h 45 % 0 mm
17:22 -12.4 °C -19.1 °C 34899.5 hPa NE 25.9 km/h 54.4 km/h 43 % 0 mm
17:32 -12.4 °C -18.8 °C 34899.5 hPa NE 33.6 km/h 46.7 km/h 45 % 0 mm
17:42 -12.4 °C -18.4 °C 34899.5 hPa North 12.9 km/h 51.8 km/h 47 % 0 mm
17:47 -12.4 °C -19.2 °C 34899.5 hPa NE 38.8 km/h 51.8 km/h 42 % 0 mm
17:52 -12.3 °C -18.8 °C 34899.5 hPa NNE 15.6 km/h 51.8 km/h 44 % 0 mm
17:57 -12.4 °C -19.1 °C 34899.5 hPa NE 41.4 km/h 51.8 km/h 43 % 0 mm
18:02 -12.6 °C -18.7 °C 34909.7 hPa NNE 28.5 km/h 51.8 km/h 46 % 0 mm
18:12 -12.7 °C -18.8 °C 34899.5 hPa NNE 38.8 km/h 51.8 km/h 46 % 0 mm
18:17 -12.7 °C -19.3 °C 34899.5 hPa NE 36.2 km/h 49.2 km/h 43 % 0 mm
18:22 -12.6 °C -19 °C 34909.7 hPa NE 33.6 km/h 49.2 km/h 44 % 0 mm
18:27 -12.6 °C -18.7 °C 34909.7 hPa NNE 25.9 km/h 49.2 km/h 46 % 0 mm
18:32 -12.8 °C -18.9 °C 34909.7 hPa NE 51.8 km/h 51.8 km/h 46 % 0 mm
18:37 -13 °C -19.1 °C 34909.7 hPa ENE 18.2 km/h 49.2 km/h 46 % 0 mm
18:42 -13 °C -19.1 °C 34909.7 hPa NE 15.6 km/h 54.4 km/h 46 % 0 mm
18:52 -12.8 °C -18.8 °C 34909.7 hPa NE 25.9 km/h 54.4 km/h 47 % 0 mm
18:57 -12.8 °C -18.9 °C 34909.7 hPa NE 31.1 km/h 41.4 km/h 46 % 0 mm
19:02 -12.9 °C -19.4 °C 34909.7 hPa North 41.4 km/h 41.4 km/h 44 % 0 mm
19:12 -12.9 °C -19.1 °C 34909.7 hPa ENE 12.9 km/h 51.8 km/h 46 % 0 mm
19:17 -12.9 °C -19 °C 34909.7 hPa NNE 7.7 km/h 46.7 km/h 46 % 0 mm
19:22 -13 °C -19.3 °C 34909.7 hPa NNE 20.8 km/h 46.7 km/h 45 % 0 mm
19:32 -13.2 °C -19.1 °C 34909.7 hPa NE 44.1 km/h 44.1 km/h 47 % 0 mm
19:37 -13.2 °C -19.1 °C 34923.2 hPa ENE 10.3 km/h 49.2 km/h 47 % 0 mm
19:42 -13.2 °C -19.3 °C 34909.7 hPa NNE 20.8 km/h 49.2 km/h 46 % 0 mm
19:47 -13.3 °C -19.6 °C 34923.2 hPa NE 20.8 km/h 49.2 km/h 45 % 0 mm
19:52 -13.4 °C -19.5 °C 34923.2 hPa NE 28.5 km/h 49.2 km/h 46 % 0 mm
19:57 -13.5 °C -19.4 °C 34923.2 hPa NNE 28.5 km/h 46.7 km/h 47 % 0 mm
20:02 -13.5 °C -19.6 °C 34923.2 hPa NE 28.5 km/h 46.7 km/h 46 % 0 mm
20:12 -13.5 °C -19.6 °C 34923.2 hPa NE 23.3 km/h 38.8 km/h 46 % 0 mm
20:17 -13.6 °C -19.7 °C 34923.2 hPa NNE 12.9 km/h 44.1 km/h 46 % 0 mm
20:22 -13.7 °C -19.6 °C 34933.4 hPa NE 36.2 km/h 44.1 km/h 47 % 0 mm
20:27 -13.8 °C -19.7 °C 34933.4 hPa NE 25.9 km/h 49.2 km/h 47 % 0 mm
20:32 -13.8 °C -19.6 °C 34933.4 hPa NE 23.3 km/h 49.2 km/h 48 % 0 mm
20:37 -13.9 °C -19.7 °C 34933.4 hPa NE 15.6 km/h 49.2 km/h 48 % 0 mm
20:42 -14 °C -19.7 °C 34933.4 hPa NE 25.9 km/h 49.2 km/h 48 % 0 mm
20:47 -14.1 °C -19.7 °C 34946.9 hPa North 15.6 km/h 38.8 km/h 48 % 0 mm
20:52 -14.1 °C -19.7 °C 34946.9 hPa NNE 20.8 km/h 38.8 km/h 49 % 0 mm
20:57 -14.2 °C -19.6 °C 34946.9 hPa ENE 12.9 km/h 36.2 km/h 50 % 0 mm
21:02 -14.3 °C -19.6 °C 34946.9 hPa NE 10.3 km/h 36.2 km/h 51 % 0 mm
21:07 -14.4 °C -19.6 °C 34946.9 hPa NNE 15.6 km/h 23.3 km/h 51 % 0 mm
21:12 -14.5 °C -19.7 °C 34946.9 hPa NNE 15.6 km/h 23.3 km/h 51 % 0 mm
21:17 -14.5 °C -19.7 °C 34946.9 hPa NNE 12.9 km/h 23.3 km/h 51 % 0 mm
21:22 -14.6 °C -19.6 °C 34957.1 hPa ENE 10.3 km/h 23.3 km/h 52 % 0 mm
21:27 -14.6 °C -19.7 °C 34946.9 hPa NNE 23.3 km/h 25.9 km/h 52 % 0 mm
21:32 -14.6 °C -19.6 °C 34957.1 hPa NNW 5.1 km/h 25.9 km/h 52 % 0 mm
21:42 -14.5 °C -19.7 °C 34957.1 hPa NNE 18.2 km/h 31.1 km/h 51 % 0 mm
21:47 -14.5 °C -19.7 °C 34957.1 hPa NE 10.3 km/h 38.8 km/h 51 % 0 mm
21:52 -14.6 °C -19.8 °C 34967.2 hPa NE 10.3 km/h 38.8 km/h 51 % 0 mm
21:57 -14.6 °C -19.7 °C 34967.2 hPa NE 5.1 km/h 36.2 km/h 52 % 0 mm
22:02 -14.7 °C -19.6 °C 34967.2 hPa NNE 5.1 km/h 36.2 km/h 53 % 0 mm
22:12 -14.9 °C -19.6 °C 34967.2 hPa Calm   31.1 km/h 55 % 0 mm
22:17 -15.1 °C -19.6 °C 34967.2 hPa WNW 2.6 km/h 15.6 km/h 56 % 0 mm
22:22 -15.2 °C -19.6 °C 34967.2 hPa NW 2.6 km/h 15.6 km/h 57 % 0 mm
22:27 -15.3 °C -19.7 °C 34967.2 hPa NNW 7.7 km/h 15.6 km/h 57 % 0 mm
22:32 -15.4 °C -19.6 °C 34967.2 hPa NW 2.6 km/h 15.6 km/h 58 % 0 mm
22:37 -15.4 °C -19.6 °C 34967.2 hPa NNW 2.6 km/h 12.9 km/h 58 % 0 mm
22:42 -15.6 °C -19.7 °C 34980.8 hPa Calm   12.9 km/h 59 % 0 mm
22:47 -15.7 °C -19.6 °C 34967.2 hPa North 2.6 km/h 12.9 km/h 60 % 0 mm
22:52 -15.7 °C -19.6 °C 34980.8 hPa NNE 2.6 km/h 12.9 km/h 60 % 0 mm
22:57 -15.8 °C -19.6 °C 34980.8 hPa North 2.6 km/h 12.9 km/h 61 % 0 mm
23:02 -15.8 °C -19.6 °C 34980.8 hPa North 2.6 km/h 12.9 km/h 61 % 0 mm
23:07 -15.9 °C -19.7 °C 34980.8 hPa NNW 5.1 km/h 7.7 km/h 61 % 0 mm
23:12 -15.8 °C -19.6 °C 34980.8 hPa NW 2.6 km/h 7.7 km/h 61 % 0 mm
23:17 -15.7 °C -19.5 °C 34980.8 hPa NNW 7.7 km/h 12.9 km/h 61 % 0 mm
23:22 -15.7 °C -19.6 °C 34980.8 hPa NE 10.3 km/h 12.9 km/h 60 % 0 mm
23:32 -15.8 °C -19.7 °C 34980.8 hPa NE 10.3 km/h 18.2 km/h 60 % 0 mm
23:37 -15.8 °C -19.7 °C 34980.8 hPa NNE 2.6 km/h 18.2 km/h 60 % 0 mm
23:42 -15.8 °C -19.7 °C 34980.8 hPa NNE 5.1 km/h 18.2 km/h 60 % 0 mm
23:52 -15.7 °C -19.8 °C 34980.8 hPa NNE 7.7 km/h 15.6 km/h 59 % 0 mm
Meteo18
Compliments of Weather Underground - 4 mb

Script developed by  Jim McMurry - jmcmurry@mwt.net Adapted for the template by  Wim van der Kuil - Leuven-Template.eu

You find our weather info also at:

European Weather Network

Weather Underground

Equipment we use:

Weather-station
Davis Vue

Weather-program
Meteobridge

Weather-server
Raspberry PI 2 B+

Provider
1 and 1

Davis Vue

Meteobridge

Raspberry PI 2 B+

1 and 1